createdAt,value
2022-11-24T00:01:15.840Z,99656.20
2022-11-24T00:03:44.630Z,99660.13
2022-11-24T00:06:16.112Z,99663.52
2022-11-24T00:08:45.531Z,99662.41
2022-11-24T00:11:15.419Z,99658.67
2022-11-24T00:13:42.826Z,99651.86
2022-11-24T00:16:24.751Z,99650.91
2022-11-24T00:18:53.742Z,99651.48
2022-11-24T00:21:21.634Z,99648.60
2022-11-24T00:23:49.603Z,99650.16
2022-11-24T00:26:19.595Z,99651.89
2022-11-24T00:28:49.204Z,99650.38
2022-11-24T00:31:19.563Z,99648.98
2022-11-24T00:33:48.068Z,99644.94
2022-11-24T00:36:16.729Z,99645.65
2022-11-24T00:38:44.285Z,99637.90
2022-11-24T00:41:11.565Z,99641.30
2022-11-24T00:43:38.736Z,99651.54
2022-11-24T00:46:06.466Z,99654.55
2022-11-24T00:48:33.731Z,99658.16
2022-11-24T00:51:03.878Z,99651.93
2022-11-24T00:53:31.437Z,99651.58
2022-11-24T00:55:58.637Z,99654.86
2022-11-24T00:58:25.941Z,99657.10
2022-11-24T01:00:53.792Z,99655.02
2022-11-24T01:03:21.428Z,99650.13
2022-11-24T01:05:49.059Z,99654.44
2022-11-24T01:08:16.219Z,99651.17
2022-11-24T01:10:43.411Z,99647.02
2022-11-24T01:13:12.328Z,99640.98
2022-11-24T01:15:39.634Z,99640.83
2022-11-24T01:18:06.806Z,99643.25
2022-11-24T01:20:33.906Z,99648.25
2022-11-24T01:23:01.030Z,99649.90
2022-11-24T01:25:28.310Z,99653.36
2022-11-24T01:27:55.335Z,99652.34
2022-11-24T01:30:23.354Z,99650.67
2022-11-24T01:32:50.505Z,99650.96
2022-11-24T01:35:17.680Z,99652.80
2022-11-24T01:37:44.907Z,99652.98
2022-11-24T01:40:12.313Z,99653.91
2022-11-24T01:42:52.163Z,99655.86
2022-11-24T01:45:41.283Z,99656.34
2022-11-24T01:48:31.883Z,99662.88
2022-11-24T01:51:13.238Z,99664.34
2022-11-24T01:53:44.176Z,99665.47
2022-11-24T01:56:13.119Z,99658.98
2022-11-24T01:58:42.087Z,99654.69
2022-11-24T02:01:09.853Z,99646.59
2022-11-24T02:03:42.430Z,99646.30
2022-11-24T02:06:14.394Z,99645.15
2022-11-24T02:08:49.276Z,99649.60
2022-11-24T02:11:16.399Z,99645.07
2022-11-24T02:13:45.831Z,99645.48
2022-11-24T02:16:13.018Z,99648.66
2022-11-24T02:18:42.280Z,99651.04
2022-11-24T02:21:12.171Z,99656.08
2022-11-24T02:23:56.806Z,99658.81
2022-11-24T02:26:41.952Z,99662.64
2022-11-24T02:29:10.716Z,99659.66
2022-11-24T02:31:40.299Z,99651.99
2022-11-24T02:34:07.475Z,99632.05
2022-11-24T02:36:34.601Z,99628.61
2022-11-24T02:39:01.804Z,99641.95
2022-11-24T02:41:29.340Z,99653.66
2022-11-24T02:44:00.147Z,99643.20
2022-11-24T02:46:27.589Z,99637.36
2022-11-24T02:48:54.835Z,99643.80
2022-11-24T02:51:22.392Z,99642.78
2022-11-24T02:53:49.530Z,99635.55
2022-11-24T02:56:16.694Z,99631.52
2022-11-24T02:58:43.793Z,99632.27
2022-11-24T03:01:11.009Z,99638.00
2022-11-24T03:03:38.658Z,99644.16
2022-11-24T03:06:05.914Z,99643.69
2022-11-24T03:08:33.011Z,99639.16
2022-11-24T03:11:02.080Z,99641.48
2022-11-24T03:13:29.668Z,99641.69
2022-11-24T03:15:56.791Z,99634.49
2022-11-24T03:18:23.892Z,99635.91
2022-11-24T03:20:51.015Z,99642.80
2022-11-24T03:23:18.115Z,99642.87
2022-11-24T03:25:45.189Z,99643.60
2022-11-24T03:28:12.341Z,99645.77
2022-11-24T03:30:39.517Z,99642.84
2022-11-24T03:33:07.438Z,99649.85
2022-11-24T03:35:34.536Z,99663.81
2022-11-24T03:38:01.684Z,99665.50
2022-11-24T03:40:29.323Z,99665.86
2022-11-24T03:42:56.497Z,99670.89
2022-11-24T03:45:44.977Z,99666.92
2022-11-24T03:48:10.792Z,99673.59
2022-11-24T03:50:37.904Z,99675.39
2022-11-24T03:53:05.094Z,99673.44
2022-11-24T03:55:32.245Z,99678.50
2022-11-24T03:57:59.395Z,99670.94
2022-11-24T04:00:27.085Z,99670.11
2022-11-24T04:02:54.497Z,99665.63
2022-11-24T04:05:21.769Z,99665.72
2022-11-24T04:07:49.096Z,99666.48
2022-11-24T04:10:16.325Z,99671.76
2022-11-24T04:12:46.079Z,99670.38
2022-11-24T04:15:16.211Z,99665.39
2022-11-24T04:17:45.028Z,99668.61
2022-11-24T04:20:12.967Z,99669.48
2022-11-24T04:22:40.453Z,99669.48
2022-11-24T04:25:08.638Z,99663.41
2022-11-24T04:27:36.929Z,99660.30
2022-11-24T04:30:06.665Z,99656.75
2022-11-24T04:32:33.763Z,99664.02
2022-11-24T04:35:00.786Z,99668.84
2022-11-24T04:37:28.318Z,99666.02
2022-11-24T04:39:55.549Z,99670.41
2022-11-24T04:42:22.748Z,99673.17
2022-11-24T04:44:49.873Z,99682.98
2022-11-24T04:47:24.446Z,99686.64
2022-11-24T04:49:52.416Z,99683.13
2022-11-24T04:52:21.962Z,99684.38
2022-11-24T04:54:49.560Z,99690.65
2022-11-24T04:57:22.266Z,99693.58
2022-11-24T04:59:51.157Z,99699.14
2022-11-24T05:02:18.539Z,99701.45
2022-11-24T05:04:46.205Z,99703.49
2022-11-24T05:07:19.303Z,99711.02
2022-11-24T05:10:08.272Z,99713.25
2022-11-24T05:12:35.473Z,99718.64
2022-11-24T05:15:04.620Z,99721.90
2022-11-24T05:17:34.254Z,99724.61
2022-11-24T05:20:01.457Z,99721.89
2022-11-24T05:22:29.788Z,99723.86
2022-11-24T05:24:56.909Z,99726.08
2022-11-24T05:27:24.699Z,99721.94
2022-11-24T05:29:51.873Z,99723.48
2022-11-24T05:32:18.953Z,99724.56
2022-11-24T05:34:46.046Z,99718.95
2022-11-24T05:37:13.147Z,99715.23
2022-11-24T05:39:40.272Z,99717.11
2022-11-24T05:42:26.494Z,99712.19
2022-11-24T05:44:54.081Z,99716.64
2022-11-24T05:47:21.898Z,99717.97
2022-11-24T05:49:49.000Z,99724.90
2022-11-24T05:52:16.867Z,99726.19
2022-11-24T05:54:43.911Z,99730.45
2022-11-24T05:57:10.954Z,99728.73
2022-11-24T05:59:37.903Z,99737.38
2022-11-24T06:02:05.069Z,99739.21
2022-11-24T06:04:32.617Z,99740.09
2022-11-24T06:07:00.172Z,99748.65
2022-11-24T06:09:27.302Z,99752.56
2022-11-24T06:11:54.548Z,99749.49
2022-11-24T06:14:21.881Z,99740.91
2022-11-24T06:16:48.953Z,99746.10
2022-11-24T06:19:16.004Z,99745.61
2022-11-24T06:21:43.072Z,99749.33
2022-11-24T06:24:10.076Z,99750.33
2022-11-24T06:26:36.991Z,99746.05
2022-11-24T06:29:04.040Z,99750.89
2022-11-24T06:31:31.151Z,99754.01
2022-11-24T06:33:59.312Z,99757.45
2022-11-24T06:36:27.056Z,99764.19
2022-11-24T06:38:54.280Z,99762.80
2022-11-24T06:41:21.353Z,99765.39
2022-11-24T06:43:48.504Z,99764.42
2022-11-24T06:46:15.629Z,99764.20
2022-11-24T06:48:42.729Z,99767.85
2022-11-24T06:51:13.131Z,99771.64
2022-11-24T06:53:41.306Z,99768.27
2022-11-24T06:56:16.550Z,99771.80
2022-11-24T06:58:47.612Z,99779.38
2022-11-24T07:01:19.114Z,99780.88
2022-11-24T07:03:48.315Z,99780.24
2022-11-24T07:06:16.385Z,99777.11
2022-11-24T07:08:44.203Z,99778.93
2022-11-24T07:11:15.631Z,99783.88
2022-11-24T07:13:43.558Z,99782.95
2022-11-24T07:16:19.999Z,99786.30
2022-11-24T07:18:48.780Z,99787.35
2022-11-24T07:21:16.444Z,99789.33
2022-11-24T07:23:43.899Z,99797.09
2022-11-24T07:26:11.331Z,99799.56
2022-11-24T07:28:38.404Z,99804.26
2022-11-24T07:31:10.240Z,99804.93
2022-11-24T07:33:38.237Z,99807.33
2022-11-24T07:36:06.961Z,99816.55
2022-11-24T07:38:34.868Z,99817.71
2022-11-24T07:41:07.996Z,99815.83
2022-11-24T07:43:36.897Z,99817.48
2022-11-24T07:46:05.983Z,99813.64
2022-11-24T07:48:33.912Z,99809.62
2022-11-24T07:51:05.139Z,99808.45
2022-11-24T07:53:33.462Z,99809.94
2022-11-24T07:56:02.456Z,99812.23
2022-11-24T07:58:32.866Z,99813.75
2022-11-24T08:01:01.167Z,99818.29
2022-11-24T08:03:28.426Z,99816.42
2022-11-24T08:08:47.598Z,99813.09
2022-11-24T08:11:17.445Z,99812.03
2022-11-24T08:13:44.979Z,99813.83
2022-11-24T08:16:15.232Z,99812.19
2022-11-24T08:18:43.062Z,99808.30
2022-11-24T08:21:13.539Z,99810.04
2022-11-24T08:23:42.001Z,99810.64
2022-11-24T08:26:16.160Z,99812.12
2022-11-24T08:28:44.213Z,99814.33
2022-11-24T08:31:17.288Z,99821.74
2022-11-24T08:33:45.010Z,99818.46
2022-11-24T08:36:15.361Z,99817.13
2022-11-24T08:38:43.130Z,99821.33
2022-11-24T08:41:16.766Z,99818.06
2022-11-24T08:43:44.083Z,99823.33
2022-11-24T08:46:13.980Z,99822.80
2022-11-24T08:48:41.775Z,99820.73
2022-11-24T08:51:11.731Z,99821.02
2022-11-24T08:53:39.266Z,99822.22
2022-11-24T08:56:07.823Z,99823.83
2022-11-24T08:58:35.707Z,99824.20
2022-11-24T09:01:12.149Z,99825.45
2022-11-24T09:03:42.278Z,99822.64
2022-11-24T09:06:13.961Z,99817.44
2022-11-24T09:08:41.573Z,99816.42
2022-11-24T09:11:11.207Z,99814.48
2022-11-24T09:13:39.381Z,99819.67
2022-11-24T09:16:11.375Z,99824.09
2022-11-24T09:18:38.904Z,99826.80
2022-11-24T09:21:09.569Z,99823.41
2022-11-24T09:23:38.532Z,99821.19
2022-11-24T09:26:06.372Z,99814.55
2022-11-24T09:28:33.498Z,99809.98
2022-11-24T09:31:02.381Z,99809.06
2022-11-24T09:33:30.179Z,99809.16
2022-11-24T09:35:57.356Z,99812.34
2022-11-24T09:38:24.763Z,99815.80
2022-11-24T09:40:56.820Z,99818.59
2022-11-24T09:43:36.573Z,99819.84
2022-11-24T09:46:11.928Z,99824.62
2022-11-24T09:48:42.886Z,99822.77
2022-11-24T09:51:12.825Z,99816.71
2022-11-24T09:53:45.451Z,99819.29
2022-11-24T09:56:26.297Z,99822.96
2022-11-24T09:59:03.304Z,99827.23
2022-11-24T10:01:40.628Z,99824.90
2022-11-24T10:04:42.400Z,99832.16
2022-11-24T10:07:28.014Z,99830.44
2022-11-24T10:10:06.633Z,99823.48
2022-11-24T10:12:43.567Z,99824.68
2022-11-24T10:15:41.599Z,99823.44
2022-11-24T10:18:33.775Z,99824.58
2022-11-24T10:21:15.442Z,99824.08
2022-11-24T10:24:04.432Z,99826.63
2022-11-24T10:26:39.518Z,99828.64
2022-11-24T10:29:12.837Z,99829.50
2022-11-24T10:31:43.064Z,99835.60
2022-11-24T10:34:33.530Z,99831.00
2022-11-24T10:37:14.045Z,99830.52
2022-11-24T10:40:01.276Z,99834.55
2022-11-24T10:42:33.766Z,99843.04
2022-11-24T10:45:11.158Z,99848.16
2022-11-24T10:47:40.465Z,99846.16
2022-11-24T10:50:27.998Z,99846.96
2022-11-24T10:53:11.649Z,99851.95
2022-11-24T10:55:59.970Z,99851.69
2022-11-24T10:58:38.598Z,99844.27
2022-11-24T11:01:15.455Z,99845.92
2022-11-24T11:03:47.758Z,99848.95
2022-11-24T11:06:20.962Z,99846.86
2022-11-24T11:08:48.022Z,99846.46
2022-11-24T11:11:18.153Z,99848.17
2022-11-24T11:14:02.904Z,99846.98
2022-11-24T11:16:46.245Z,99846.92
2022-11-24T11:19:53.153Z,99844.85
2022-11-24T11:22:27.214Z,99842.06
2022-11-24T11:25:14.926Z,99846.20
2022-11-24T11:27:42.798Z,99847.09
2022-11-24T11:35:50.475Z,99844.70
2022-11-24T11:38:17.962Z,99843.14
2022-11-24T11:40:48.822Z,99837.47
2022-11-24T11:43:26.903Z,99838.00
2022-11-24T11:46:03.975Z,99837.80
2022-11-24T11:48:42.771Z,99837.14
2022-11-24T11:51:26.141Z,99837.31
2022-11-24T11:54:21.271Z,99839.09
2022-11-24T11:56:56.564Z,99841.32
2022-11-24T12:00:11.765Z,99841.24
2022-11-24T12:03:25.184Z,99849.44
2022-11-24T12:06:01.646Z,99855.64
2022-11-24T12:09:11.557Z,99853.50
2022-11-24T12:11:53.419Z,99855.15
2022-11-24T12:14:41.587Z,99855.77
2022-11-24T12:17:37.562Z,99857.30
2022-11-24T12:20:14.929Z,99854.58
2022-11-24T12:22:59.849Z,99860.21
2022-11-24T12:25:38.338Z,99856.41
2022-11-24T12:28:20.131Z,99851.02
2022-11-24T12:30:56.629Z,99847.55
2022-11-24T12:33:39.114Z,99848.94
2022-11-24T12:36:28.226Z,99851.16
2022-11-24T12:39:00.342Z,99853.88
2022-11-24T12:41:43.455Z,99850.04
2022-11-24T12:44:39.854Z,99851.73
2022-11-24T12:47:27.100Z,99854.27
2022-11-24T12:50:10.486Z,99856.42
2022-11-24T12:53:24.356Z,99857.80
2022-11-24T12:55:52.425Z,99855.48
2022-11-24T12:58:22.317Z,99854.53
2022-11-24T13:00:55.355Z,99852.64
2022-11-24T13:03:36.354Z,99852.27
2022-11-24T13:06:14.613Z,99853.77
2022-11-24T13:08:41.872Z,99857.59
2022-11-24T13:11:21.101Z,99851.66
2022-11-24T13:14:06.227Z,99852.16
2022-11-24T13:16:38.672Z,99852.55
2022-11-24T13:19:23.435Z,99855.32
2022-11-24T13:22:01.546Z,99857.52
2022-11-24T13:24:32.087Z,99854.25
2022-11-24T13:27:19.811Z,99850.88
2022-11-24T13:29:53.131Z,99855.45
2022-11-24T13:32:21.251Z,99854.21
2022-11-24T13:34:55.517Z,99854.04
2022-11-24T13:37:27.320Z,99851.14
2022-11-24T13:40:12.209Z,99845.46
2022-11-24T13:42:54.856Z,99847.89
2022-11-24T13:45:41.086Z,99855.00
2022-11-24T13:48:21.489Z,99858.52
2022-11-24T13:50:56.219Z,99858.02
2022-11-24T13:53:35.994Z,99856.25
2022-11-24T13:56:03.049Z,99861.86
2022-11-24T13:58:36.439Z,99859.15
2022-11-24T14:01:06.250Z,99862.61
2022-11-24T14:03:36.879Z,99865.00
2022-11-24T14:06:04.849Z,99869.27
2022-11-24T14:08:36.455Z,99871.58
2022-11-24T14:11:11.413Z,99870.12
2022-11-24T14:13:38.513Z,99867.33
2022-11-24T14:16:15.191Z,99866.88
2022-11-24T14:18:45.031Z,99863.80
2022-11-24T14:21:35.958Z,99867.48
2022-11-24T14:24:08.946Z,99869.24
2022-11-24T14:26:39.580Z,99872.33
2022-11-24T14:29:15.640Z,99876.11
2022-11-24T14:31:53.643Z,99879.70
2022-11-24T14:34:22.380Z,99889.95
2022-11-24T14:36:51.142Z,99892.50
2022-11-24T14:39:23.091Z,99892.64
2022-11-24T14:42:08.025Z,99892.05
2022-11-24T14:44:41.012Z,99891.96
2022-11-24T14:47:30.932Z,99891.70
2022-11-24T14:50:07.845Z,99899.71
2022-11-24T14:52:35.716Z,99899.00
2022-11-24T14:55:21.721Z,99903.84
2022-11-24T14:57:49.372Z,99903.55
2022-11-24T15:00:20.695Z,99905.57
2022-11-24T15:02:55.041Z,99901.38
2022-11-24T15:05:25.035Z,99904.48
2022-11-24T15:08:02.475Z,99904.79
2022-11-24T15:10:36.389Z,99908.52
2022-11-24T15:13:13.926Z,99916.57
2022-11-24T15:15:48.549Z,99920.34
2022-11-24T15:18:27.661Z,99922.02
2022-11-24T15:20:54.991Z,99931.45
2022-11-24T15:23:35.375Z,99933.52
2022-11-24T15:26:02.423Z,99934.81
2022-11-24T15:28:31.025Z,99934.33
2022-11-24T15:31:04.940Z,99933.72
2022-11-24T15:33:33.016Z,99938.39
2022-11-24T15:36:00.551Z,99936.94
2022-11-24T15:38:27.615Z,99934.66
2022-11-24T15:40:57.973Z,99935.59
2022-11-24T15:43:34.647Z,99936.41
2022-11-24T15:46:03.208Z,99931.94
2022-11-24T15:48:30.329Z,99925.20
2022-11-24T15:50:58.839Z,99922.88
2022-11-24T15:53:32.730Z,99923.77
2022-11-24T15:56:01.561Z,99929.35
2022-11-24T15:58:28.609Z,99926.35
2022-11-24T16:00:55.827Z,99929.70
2022-11-24T16:06:17.916Z,99929.98
2022-11-24T16:08:49.289Z,99931.85
2022-11-24T16:11:16.340Z,99932.45
2022-11-24T16:13:46.979Z,99932.52
2022-11-24T16:16:17.695Z,99937.41
2022-11-24T16:18:45.511Z,99940.39
2022-11-24T16:21:12.645Z,99943.41
2022-11-24T16:23:39.769Z,99943.20
2022-11-24T16:26:07.280Z,99946.59
2022-11-24T16:28:34.635Z,99947.79
2022-11-24T16:31:01.990Z,99948.88
2022-11-24T16:33:30.242Z,99952.10
2022-11-24T16:35:57.546Z,99953.91
2022-11-24T16:38:24.567Z,99961.59
2022-11-24T16:40:52.846Z,99963.93
2022-11-24T16:43:20.284Z,99967.10
2022-11-24T16:46:00.836Z,99970.80
2022-11-24T16:48:27.966Z,99970.67
2022-11-24T16:50:55.040Z,99970.67
2022-11-24T16:53:22.040Z,99966.45
2022-11-24T16:55:57.892Z,99970.44
2022-11-24T16:58:25.273Z,99975.81
2022-11-24T17:00:52.442Z,99982.36
2022-11-24T17:03:19.701Z,99978.85
2022-11-24T17:06:00.804Z,99977.54
2022-11-24T17:08:32.006Z,99979.40
2022-11-24T17:11:13.897Z,99981.30
2022-11-24T17:13:42.149Z,99982.80
2022-11-24T17:16:13.591Z,99989.73
2022-11-24T17:18:41.339Z,99990.54
2022-11-24T17:21:12.636Z,99993.09
2022-11-24T17:23:40.121Z,99993.60
2022-11-24T17:26:11.058Z,99994.48
2022-11-24T17:28:38.493Z,99996.73
2022-11-24T17:31:07.052Z,99999.70
2022-11-24T17:33:34.429Z,100002.48
2022-11-24T17:36:03.423Z,100003.23
2022-11-24T17:38:34.465Z,100005.88
2022-11-24T17:41:01.642Z,100007.52
2022-11-24T17:43:29.203Z,100006.17
2022-11-24T17:45:58.269Z,100007.58
2022-11-24T17:48:25.884Z,100009.98
2022-11-24T17:51:08.035Z,100008.42
2022-11-24T17:53:39.274Z,100010.27
2022-11-24T17:56:08.404Z,100011.80
2022-11-24T17:58:41.244Z,100015.70
2022-11-24T18:01:11.039Z,100014.79
2022-11-24T18:03:42.058Z,100015.77
2022-11-24T18:06:11.804Z,100012.30
2022-11-24T18:08:41.492Z,100010.86
2022-11-24T18:11:11.583Z,100015.14
2022-11-24T18:13:59.891Z,100018.36
2022-11-24T18:16:28.372Z,100017.57
2022-11-24T18:19:07.931Z,100011.38
2022-11-24T18:21:37.972Z,100010.48
2022-11-24T18:24:05.149Z,100013.17
2022-11-24T18:26:32.324Z,100007.78
2022-11-24T18:28:59.914Z,100014.01
2022-11-24T18:31:27.201Z,100013.10
2022-11-24T18:33:54.337Z,100014.70
2022-11-24T18:36:27.054Z,100018.67
2022-11-24T18:38:57.702Z,100023.31
2022-11-24T18:41:24.775Z,100027.74
2022-11-24T18:43:51.798Z,100026.67
2022-11-24T18:46:19.247Z,100032.37
2022-11-24T18:48:46.406Z,100033.38
2022-11-24T18:51:14.812Z,100035.23
2022-11-24T18:53:43.883Z,100036.93
2022-11-24T18:56:16.463Z,100041.30
2022-11-24T18:58:44.255Z,100044.81
2022-11-24T19:01:12.728Z,100046.67
2022-11-24T19:03:48.020Z,100050.95
2022-11-24T19:06:32.734Z,100055.53
2022-11-24T19:09:09.189Z,100055.90
2022-11-24T19:11:38.405Z,100057.27
2022-11-24T19:14:07.500Z,100059.63
2022-11-24T19:16:35.138Z,100063.39
2022-11-24T19:19:03.233Z,100065.27
2022-11-24T19:21:32.670Z,100068.46
2022-11-24T19:24:04.988Z,100073.14
2022-11-24T19:26:35.411Z,100073.06
2022-11-24T19:29:03.207Z,100071.80
2022-11-24T19:31:30.363Z,100070.05
2022-11-24T19:33:58.814Z,100073.30
2022-11-24T19:36:26.428Z,100071.35
2022-11-24T19:38:55.575Z,100067.77
2022-11-24T19:41:25.432Z,100062.35
2022-11-24T19:43:55.554Z,100057.44
2022-11-24T19:46:27.775Z,100055.84
2022-11-24T19:48:57.345Z,100056.21
2022-11-24T19:51:30.849Z,100055.33
2022-11-24T19:53:58.799Z,100053.66
2022-11-24T19:56:28.047Z,100048.13
2022-11-24T19:58:56.096Z,100048.64
2022-11-24T20:01:33.718Z,100048.13
2022-11-24T20:04:04.328Z,100051.92
2022-11-24T20:06:34.544Z,100055.77
2022-11-24T20:09:01.775Z,100063.40
2022-11-24T20:11:29.718Z,100066.72
2022-11-24T20:13:57.977Z,100064.69
2022-11-24T20:16:30.063Z,100064.95
2022-11-24T20:19:01.893Z,100066.27
2022-11-24T20:21:32.762Z,100073.50
2022-11-24T20:24:24.777Z,100077.62
2022-11-24T20:26:58.285Z,100079.41
2022-11-24T20:29:25.722Z,100077.30
2022-11-24T20:31:54.651Z,100077.29
2022-11-24T20:34:22.741Z,100084.31
2022-11-24T20:36:49.942Z,100087.23
2022-11-24T20:39:25.335Z,100089.28
2022-11-24T20:41:53.379Z,100092.10
2022-11-24T20:44:22.233Z,100091.00
2022-11-24T20:46:49.755Z,100093.54
2022-11-24T20:49:19.951Z,100101.63
2022-11-24T20:51:47.924Z,100103.24
2022-11-24T20:54:17.685Z,100106.02
2022-11-24T20:56:46.614Z,100103.73
2022-11-24T20:59:16.648Z,100109.25
2022-11-24T21:01:46.650Z,100113.99
2022-11-24T21:04:19.878Z,100124.18
2022-11-24T21:06:47.622Z,100124.91
2022-11-24T21:09:14.742Z,100126.70
2022-11-24T21:11:42.151Z,100130.36
2022-11-24T21:14:09.940Z,100129.16
2022-11-24T21:16:39.238Z,100127.56
2022-11-24T21:19:10.129Z,100126.27
2022-11-24T21:21:38.070Z,100127.40
2022-11-24T21:24:13.569Z,100131.25
2022-11-24T21:26:41.796Z,100130.20
2022-11-24T21:29:11.609Z,100131.80
2022-11-24T21:31:39.348Z,100133.27
2022-11-24T21:34:08.167Z,100137.23
2022-11-24T21:36:36.363Z,100139.83
2022-11-24T21:39:04.496Z,100140.33
2022-11-24T21:41:33.636Z,100139.15
2022-11-24T21:44:01.303Z,100139.44
2022-11-24T21:46:30.186Z,100144.89
2022-11-24T21:48:57.285Z,100146.20
2022-11-24T21:51:24.335Z,100148.27
2022-11-24T21:53:51.536Z,100147.45
2022-11-24T21:56:20.533Z,100151.38
2022-11-24T21:58:53.286Z,100152.52
2022-11-24T22:01:23.620Z,100157.77
2022-11-24T22:03:51.248Z,100154.67
2022-11-24T22:06:19.398Z,100158.65
2022-11-24T22:08:47.853Z,100152.80
2022-11-24T22:11:17.873Z,100151.66
2022-11-24T22:13:45.816Z,100149.45
2022-11-24T22:16:18.134Z,100146.03
2022-11-24T22:18:46.286Z,100143.89
2022-11-24T22:21:20.809Z,100140.83
2022-11-24T22:23:51.033Z,100143.69
2022-11-24T22:26:20.693Z,100146.92
2022-11-24T22:28:48.092Z,100146.96
2022-11-24T22:31:20.986Z,100149.66
2022-11-24T22:33:49.131Z,100147.80
2022-11-24T22:36:18.893Z,100146.15
2022-11-24T22:38:45.994Z,100145.05
2022-11-24T22:41:17.906Z,100143.30
2022-11-24T22:43:46.368Z,100141.97
2022-11-24T22:46:16.109Z,100144.05
2022-11-24T22:48:43.773Z,100145.55
2022-11-24T22:51:13.573Z,100148.84
2022-11-24T22:53:41.364Z,100149.23
2022-11-24T22:56:11.484Z,100150.38
2022-11-24T22:58:39.584Z,100146.58
2022-11-24T23:01:15.206Z,100146.66
2022-11-24T23:03:42.647Z,100148.11
2022-11-24T23:06:21.820Z,100148.99
2022-11-24T23:08:49.662Z,100149.41
2022-11-24T23:11:25.875Z,100151.56
2022-11-24T23:13:58.326Z,100152.55
2022-11-24T23:16:25.312Z,100149.16
2022-11-24T23:18:54.108Z,100150.25
2022-11-24T23:21:27.125Z,100149.78
2022-11-24T23:23:55.021Z,100148.98
2022-11-24T23:26:24.908Z,100147.77
2022-11-24T23:28:52.263Z,100142.81
2022-11-24T23:31:22.404Z,100145.95
2022-11-24T23:33:49.636Z,100142.96
2022-11-24T23:36:19.169Z,100137.23
2022-11-24T23:38:47.266Z,100140.33
2022-11-24T23:41:18.050Z,100137.92
2022-11-24T23:43:45.379Z,100139.49
2022-11-24T23:46:17.998Z,100137.53
2022-11-24T23:48:45.063Z,100138.36
2022-11-24T23:51:14.616Z,100136.39
2022-11-24T23:53:42.789Z,100137.52
2022-11-24T23:56:12.704Z,100135.52
2022-11-24T23:58:39.958Z,100137.41
